Time;durP1;ratioP1;P1;durP2;ratioP2;P2;SDS_P1;SDS_P2;PMS_P1;PMS_P2;Temp;Humidity;BMP_temperature;BMP_pressure;BME280_temperature;BME280_humidity;BME280_pressure;Samples;Min_cycle;Max_cycle;Signal;HPM_P1;HPM_P2
2023/12/09 00:00:25;;;;;;;;;;;3.30;90.20;;;;;;5049020;28;19929;-62
2023/12/09 00:02:58;;;;;;;;;;;3.40;90.00;;;;;;5043363;28;19986;-62
2023/12/09 00:05:32;;;;;;;;;;;3.40;90.00;;;;;;5049723;28;19928;-61
2023/12/09 00:08:05;;;;;;;;;;;3.30;90.10;;;;;;5050013;28;19979;-61
2023/12/09 00:10:37;;;;;;;;;;;3.30;90.10;;;;;;5050508;28;19935;-62
2023/12/09 00:13:12;;;;;;;;;;;3.30;90.20;;;;;;5048957;28;19935;-62
2023/12/09 00:15:45;;;;;;;;;;;3.30;90.20;;;;;;5050180;28;19967;-60
2023/12/09 00:18:18;;;;;;;;;;;3.30;90.20;;;;;;5050313;28;19971;-61
2023/12/09 00:20:55;;;;;;;;;;;3.40;90.10;;;;;;5045314;28;20455;-61
2023/12/09 00:23:27;;;;;;;;;;;3.40;90.00;;;;;;5030600;28;20633;-78
2023/12/09 00:26:00;;;;;;;;;;;3.40;90.10;;;;;;5051009;28;19970;-77
2023/12/09 00:28:35;;;;;;;;;;;3.40;90.10;;;;;;5049917;28;19956;-76
2023/12/09 00:31:08;;;;;;;;;;;3.40;90.00;;;;;;5046392;28;19925;-77
2023/12/09 00:33:41;;;;;;;;;;;3.40;90.10;;;;;;5031778;28;20287;-75
2023/12/09 00:36:14;;;;;;;;;;;3.40;90.10;;;;;;5050375;28;23007;-76
2023/12/09 00:38:47;;;;;;;;;;;3.40;90.10;;;;;;5049962;28;19925;-77
2023/12/09 00:41:20;;;;;;;;;;;3.40;90.10;;;;;;5050635;28;19932;-75
2023/12/09 00:49:27;;;;;;;;;;;3.40;90.00;;;;;;3207428;22;19933;-63
2023/12/09 00:51:59;;;;;;;;;;;3.40;90.10;;;;;;5020779;28;19936;-66
2023/12/09 00:54:32;;;;;;;;;;;3.40;90.20;;;;;;5021622;28;20324;-67
2023/12/09 00:57:05;;;;;;;;;;;3.40;90.00;;;;;;5020473;28;20460;-66
2023/12/09 00:59:41;;;;;;;;;;;3.40;90.20;;;;;;5021980;28;19929;-67
2023/12/09 01:02:14;;;;;;;;;;;3.40;90.10;;;;;;5020024;28;19995;-66
2023/12/09 01:04:49;;;;;;;;;;;3.40;90.20;;;;;;5020946;28;19936;-68
2023/12/09 01:07:22;;;;;;;;;;;3.40;90.20;;;;;;5020637;28;20016;-67
2023/12/09 01:09:55;;;;;;;;;;;3.40;90.10;;;;;;5021804;28;19931;-67
2023/12/09 01:12:30;;;;;;;;;;;3.40;90.30;;;;;;5022496;28;19928;-67
2023/12/09 01:15:03;;;;;;;;;;;3.40;90.40;;;;;;5023844;28;19928;-67
2023/12/09 01:17:36;;;;;;;;;;;3.40;90.40;;;;;;5012935;28;19991;-66
2023/12/09 01:20:19;;;;;;;;;;;3.40;90.40;;;;;;5004001;28;19933;-67
2023/12/09 01:22:51;;;;;;;;;;;3.40;90.30;;;;;;5006192;28;19951;-67
2023/12/09 01:25:24;;;;;;;;;;;3.40;90.30;;;;;;5025626;28;20379;-67
2023/12/09 01:27:57;;;;;;;;;;;3.40;90.30;;;;;;5025274;28;20390;-68
2023/12/09 01:30:30;;;;;;;;;;;3.40;90.20;;;;;;5019114;28;20294;-66
2023/12/09 01:33:03;;;;;;;;;;;3.50;90.20;;;;;;5024537;28;19925;-67
2023/12/09 01:35:38;;;;;;;;;;;3.50;90.20;;;;;;5025318;28;19929;-67
2023/12/09 01:38:10;;;;;;;;;;;3.40;90.10;;;;;;5026234;28;19931;-67
2023/12/09 01:40:43;;;;;;;;;;;3.40;90.10;;;;;;5024849;28;19925;-67
2023/12/09 01:43:16;;;;;;;;;;;3.50;90.30;;;;;;5023659;28;19940;-67
2023/12/09 01:45:51;;;;;;;;;;;3.40;90.20;;;;;;5025526;28;20016;-67
2023/12/09 01:48:24;;;;;;;;;;;3.40;90.20;;;;;;5024435;28;19943;-68
2023/12/09 01:50:58;;;;;;;;;;;3.50;90.20;;;;;;5023220;28;19979;-68
2023/12/09 01:53:32;;;;;;;;;;;3.50;90.10;;;;;;5022487;28;19926;-66
2023/12/09 01:56:13;;;;;;;;;;;3.50;90.10;;;;;;5022894;28;19929;-66
2023/12/09 01:58:46;;;;;;;;;;;3.50;90.10;;;;;;5023629;28;19929;-63
2023/12/09 02:01:19;;;;;;;;;;;3.50;90.30;;;;;;5022826;28;19933;-62
2023/12/09 02:03:53;;;;;;;;;;;3.50;90.10;;;;;;5022725;28;19925;-64
2023/12/09 02:06:28;;;;;;;;;;;3.50;90.10;;;;;;5024203;28;19983;-63
2023/12/09 02:09:00;;;;;;;;;;;3.50;90.10;;;;;;5023807;28;19926;-64
2023/12/09 02:11:42;;;;;;;;;;;3.40;90.20;;;;;;5021150;28;19932;-63
2023/12/09 02:14:17;;;;;;;;;;;3.40;90.30;;;;;;5023002;28;19929;-64
2023/12/09 02:16:53;;;;;;;;;;;3.50;90.40;;;;;;5023312;28;19957;-62
2023/12/09 02:19:27;;;;;;;;;;;3.40;90.30;;;;;;5022429;28;19956;-63
2023/12/09 02:22:03;;;;;;;;;;;3.50;90.30;;;;;;5023575;28;20051;-62
2023/12/09 02:24:41;;;;;;;;;;;3.50;90.20;;;;;;5024439;28;19956;-64
2023/12/09 02:27:15;;;;;;;;;;;3.50;90.10;;;;;;5021997;28;19932;-63
2023/12/09 02:29:51;;;;;;;;;;;3.50;90.20;;;;;;5022238;28;19965;-64
2023/12/09 02:32:26;;;;;;;;;;;3.50;90.10;;;;;;5020558;28;19937;-63
2023/12/09 02:35:00;;;;;;;;;;;3.50;90.10;;;;;;5021935;28;19933;-63
2023/12/09 02:37:35;;;;;;;;;;;3.50;90.00;;;;;;5019929;28;19945;-63
2023/12/09 02:40:11;;;;;;;;;;;3.50;90.10;;;;;;5022468;28;19929;-63
2023/12/09 02:42:52;;;;;;;;;;;3.50;90.10;;;;;;5022761;28;20372;-63
2023/12/09 02:45:28;;;;;;;;;;;3.50;90.30;;;;;;5022732;28;19929;-63
2023/12/09 02:48:03;;;;;;;;;;;3.50;90.20;;;;;;5023534;28;19971;-63
2023/12/09 02:50:43;;;;;;;;;;;3.50;90.20;;;;;;5023004;28;19979;-62
2023/12/09 02:53:20;;;;;;;;;;;3.40;90.10;;;;;;5022007;28;20280;-63
2023/12/09 02:55:54;;;;;;;;;;;3.40;90.20;;;;;;5022203;28;19979;-63
2023/12/09 02:58:30;;;;;;;;;;;3.40;90.20;;;;;;5020466;28;19929;-64
2023/12/09 03:01:04;;;;;;;;;;;3.50;90.20;;;;;;5022292;28;19929;-63
2023/12/09 03:03:39;;;;;;;;;;;3.50;90.10;;;;;;5020758;28;19929;-63
2023/12/09 03:06:13;;;;;;;;;;;3.50;90.10;;;;;;5022934;28;19930;-63
2023/12/09 03:08:52;;;;;;;;;;;3.50;90.20;;;;;;5023324;28;19933;-63
2023/12/09 03:11:27;;;;;;;;;;;3.50;90.10;;;;;;5007923;28;19999;-63
2023/12/09 03:14:01;;;;;;;;;;;3.50;90.20;;;;;;5010572;28;19936;-63
2023/12/09 03:16:36;;;;;;;;;;;3.60;90.20;;;;;;5010783;28;19929;-63
2023/12/09 03:19:09;;;;;;;;;;;3.50;90.10;;;;;;5013456;28;19953;-77
2023/12/09 03:21:43;;;;;;;;;;;3.50;90.20;;;;;;5015893;28;19930;-77
2023/12/09 03:24:15;;;;;;;;;;;3.50;90.10;;;;;;5013379;28;19930;-75
2023/12/09 03:26:51;;;;;;;;;;;3.50;90.10;;;;;;5011841;28;19987;-76
2023/12/09 03:29:25;;;;;;;;;;;3.50;90.10;;;;;;5023445;28;19935;-75
2023/12/09 03:31:57;;;;;;;;;;;3.50;90.10;;;;;;5024646;28;19933;-75
2023/12/09 03:34:30;;;;;;;;;;;3.60;90.20;;;;;;5019517;28;20417;-75
2023/12/09 03:37:07;;;;;;;;;;;3.60;90.20;;;;;;5019009;28;19956;-76
2023/12/09 03:39:39;;;;;;;;;;;3.60;90.20;;;;;;5020377;28;19930;-77
2023/12/09 03:42:14;;;;;;;;;;;3.60;90.10;;;;;;5022012;28;20461;-77
2023/12/09 03:44:48;;;;;;;;;;;3.60;90.10;;;;;;5022639;28;19929;-76
2023/12/09 03:47:20;;;;;;;;;;;3.60;90.00;;;;;;5020777;28;19979;-75
2023/12/09 03:49:53;;;;;;;;;;;3.60;90.10;;;;;;5021744;28;19930;-75
2023/12/09 03:52:26;;;;;;;;;;;3.60;90.10;;;;;;5019133;28;19925;-77
2023/12/09 03:55:00;;;;;;;;;;;3.60;90.10;;;;;;5021648;28;19925;-77
2023/12/09 03:57:34;;;;;;;;;;;3.60;90.20;;;;;;5024047;28;19928;-76
2023/12/09 04:00:09;;;;;;;;;;;3.70;90.20;;;;;;5024177;28;19933;-77
2023/12/09 04:02:42;;;;;;;;;;;3.60;90.00;;;;;;5022069;28;20299;-75
2023/12/09 04:05:15;;;;;;;;;;;3.60;90.10;;;;;;5024888;28;19933;-77
2023/12/09 04:07:48;;;;;;;;;;;3.60;90.10;;;;;;5023369;28;19964;-76
2023/12/09 04:10:21;;;;;;;;;;;3.50;90.10;;;;;;5028038;28;20358;-76
2023/12/09 04:12:55;;;;;;;;;;;3.50;90.20;;;;;;5037444;28;19985;-75
2023/12/09 04:15:28;;;;;;;;;;;3.50;90.30;;;;;;5025342;28;19940;-74
2023/12/09 04:18:00;;;;;;;;;;;3.40;90.30;;;;;;5023919;28;20505;-76
2023/12/09 04:20:34;;;;;;;;;;;3.40;90.40;;;;;;5026056;28;19928;-74
2023/12/09 04:23:07;;;;;;;;;;;3.50;90.40;;;;;;5026248;28;19929;-75
2023/12/09 04:25:40;;;;;;;;;;;3.60;90.40;;;;;;5027745;28;19925;-75
2023/12/09 04:28:14;;;;;;;;;;;3.60;90.20;;;;;;5021223;28;19975;-67
2023/12/09 04:30:47;;;;;;;;;;;3.60;90.20;;;;;;5023936;28;19930;-73
2023/12/09 04:33:20;;;;;;;;;;;3.50;90.00;;;;;;5013601;28;19975;-73
2023/12/09 04:35:54;;;;;;;;;;;3.40;90.00;;;;;;5017858;28;19929;-74
2023/12/09 04:38:20;;;;;;;;;;;3.40;90.20;;;;;;5025537;28;20355;-73
2023/12/09 04:40:54;;;;;;;;;;;3.30;90.20;;;;;;5024728;28;19925;-74
2023/12/09 04:43:28;;;;;;;;;;;3.30;90.30;;;;;;5022992;28;19933;-72
2023/12/09 04:46:01;;;;;;;;;;;3.30;90.30;;;;;;5022381;28;20383;-73
2023/12/09 04:48:35;;;;;;;;;;;3.40;90.10;;;;;;5023329;28;19937;-73
2023/12/09 04:51:14;;;;;;;;;;;3.30;90.10;;;;;;5023050;28;19944;-73
2023/12/09 04:53:48;;;;;;;;;;;3.30;90.20;;;;;;5021405;28;20391;-72
2023/12/09 04:56:23;;;;;;;;;;;3.20;90.10;;;;;;5021597;28;19925;-73
2023/12/09 04:58:58;;;;;;;;;;;3.30;90.30;;;;;;5020819;28;20006;-73
2023/12/09 05:01:31;;;;;;;;;;;3.30;90.20;;;;;;5021445;28;19929;-73
2023/12/09 05:04:04;;;;;;;;;;;3.30;90.10;;;;;;5018274;28;19932;-73
2023/12/09 05:06:36;;;;;;;;;;;3.20;90.20;;;;;;5020377;28;19925;-73
2023/12/09 05:09:10;;;;;;;;;;;3.30;90.30;;;;;;5020839;28;19960;-73
2023/12/09 05:11:45;;;;;;;;;;;3.30;90.20;;;;;;5020799;28;20477;-73
2023/12/09 05:14:13;;;;;;;;;;;3.30;90.20;;;;;;5020174;28;19979;-72
2023/12/09 05:16:47;;;;;;;;;;;3.30;90.20;;;;;;5020195;28;19929;-72
2023/12/09 05:19:13;;;;;;;;;;;3.40;90.20;;;;;;5017361;28;19979;-72
2023/12/09 05:21:47;;;;;;;;;;;3.40;90.10;;;;;;5020866;28;19933;-72
2023/12/09 05:24:20;;;;;;;;;;;3.40;90.00;;;;;;5021017;28;19933;-73
2023/12/09 05:26:53;;;;;;;;;;;3.40;90.10;;;;;;5021608;28;20023;-73
2023/12/09 05:29:27;;;;;;;;;;;3.40;90.10;;;;;;5016445;28;20451;-73
2023/12/09 05:32:01;;;;;;;;;;;3.40;90.00;;;;;;5019767;28;19980;-73
2023/12/09 05:34:35;;;;;;;;;;;3.40;90.10;;;;;;5019666;28;20027;-73
2023/12/09 05:37:07;;;;;;;;;;;3.40;90.10;;;;;;5020159;28;19933;-73
2023/12/09 05:39:41;;;;;;;;;;;3.40;90.00;;;;;;5020811;28;19933;-61
2023/12/09 05:42:14;;;;;;;;;;;3.40;90.10;;;;;;5020633;28;20338;-60
2023/12/09 05:48:24;;;;;;;;;;;3.40;90.10;;;;;;4999685;28;19979;-61
2023/12/09 05:50:58;;;;;;;;;;;3.40;90.10;;;;;;5007662;28;19937;-59
2023/12/09 05:53:31;;;;;;;;;;;3.40;90.00;;;;;;5007367;28;20343;-61
2023/12/09 05:56:09;;;;;;;;;;;3.50;90.00;;;;;;5008389;28;20284;-60
2023/12/09 05:58:42;;;;;;;;;;;3.40;90.00;;;;;;5005415;28;19965;-60
2023/12/09 06:01:15;;;;;;;;;;;3.50;90.00;;;;;;5013049;28;19940;-61
2023/12/09 06:03:49;;;;;;;;;;;3.50;90.10;;;;;;5023639;28;19961;-59
2023/12/09 06:06:23;;;;;;;;;;;3.50;90.10;;;;;;5019473;28;19991;-61
2023/12/09 06:08:56;;;;;;;;;;;3.50;90.10;;;;;;5021999;28;19929;-62
2023/12/09 06:11:29;;;;;;;;;;;3.40;90.10;;;;;;5022438;28;19936;-60
2023/12/09 06:14:02;;;;;;;;;;;3.40;90.00;;;;;;5019628;28;19930;-60
2023/12/09 06:16:45;;;;;;;;;;;3.50;90.20;;;;;;5022682;28;19929;-61
2023/12/09 06:19:19;;;;;;;;;;;3.50;90.20;;;;;;5022317;28;19933;-61
2023/12/09 06:21:53;;;;;;;;;;;3.40;90.00;;;;;;5022183;28;19929;-60
2023/12/09 06:24:25;;;;;;;;;;;3.40;90.20;;;;;;5020515;28;19956;-61
2023/12/09 06:26:58;;;;;;;;;;;3.40;90.30;;;;;;5020921;28;19937;-61
2023/12/09 06:29:31;;;;;;;;;;;3.40;90.40;;;;;;5021210;28;19925;-60
2023/12/09 06:32:07;;;;;;;;;;;3.40;90.30;;;;;;5017662;28;20435;-61
2023/12/09 06:34:41;;;;;;;;;;;3.40;90.40;;;;;;5023440;28;19925;-61
2023/12/09 06:37:14;;;;;;;;;;;3.40;90.50;;;;;;5021582;28;20003;-62
2023/12/09 06:39:47;;;;;;;;;;;3.40;90.50;;;;;;5022854;28;19931;-61
2023/12/09 06:42:20;;;;;;;;;;;3.40;90.60;;;;;;5020490;28;20398;-61
2023/12/09 06:44:53;;;;;;;;;;;3.40;90.60;;;;;;5021045;28;19930;-61
2023/12/09 06:47:26;;;;;;;;;;;3.30;90.70;;;;;;5022600;28;20016;-61
2023/12/09 06:50:01;;;;;;;;;;;3.30;90.80;;;;;;5021017;28;20026;-59
2023/12/09 06:52:34;;;;;;;;;;;3.30;90.80;;;;;;5021381;28;19925;-61
2023/12/09 06:55:07;;;;;;;;;;;3.30;90.90;;;;;;5021157;28;19971;-61
2023/12/09 06:57:41;;;;;;;;;;;3.40;90.80;;;;;;5020765;28;19925;-61
2023/12/09 07:00:15;;;;;;;;;;;3.50;90.60;;;;;;5021696;28;19983;-60
2023/12/09 07:02:49;;;;;;;;;;;3.50;90.40;;;;;;5023330;28;19980;-59
2023/12/09 07:05:27;;;;;;;;;;;3.40;90.70;;;;;;5013237;28;19972;-61
2023/12/09 07:08:00;;;;;;;;;;;3.50;90.60;;;;;;5022491;28;19929;-60
2023/12/09 07:10:33;;;;;;;;;;;3.40;90.70;;;;;;5022915;28;19964;-61
2023/12/09 07:13:06;;;;;;;;;;;3.40;90.80;;;;;;5018601;28;19975;-60
2023/12/09 07:15:39;;;;;;;;;;;3.50;90.80;;;;;;5021175;28;20384;-61
2023/12/09 07:18:13;;;;;;;;;;;3.50;90.70;;;;;;5020479;28;19926;-61
2023/12/09 07:20:47;;;;;;;;;;;3.50;90.80;;;;;;5022729;28;20726;-61
2023/12/09 07:23:20;;;;;;;;;;;3.40;90.80;;;;;;5022685;28;20399;-61
2023/12/09 07:25:53;;;;;;;;;;;3.40;90.80;;;;;;5023123;28;20280;-62
2023/12/09 07:28:26;;;;;;;;;;;3.50;90.70;;;;;;5019936;28;20295;-60
2023/12/09 07:30:59;;;;;;;;;;;3.60;90.60;;;;;;5017807;28;19929;-60
2023/12/09 07:33:32;;;;;;;;;;;3.50;90.90;;;;;;5020742;28;19925;-60
2023/12/09 07:36:10;;;;;;;;;;;3.40;91.00;;;;;;5021532;28;19931;-61
2023/12/09 07:38:44;;;;;;;;;;;3.50;91.10;;;;;;5021906;28;19971;-61
2023/12/09 07:41:17;;;;;;;;;;;3.50;90.90;;;;;;5021007;28;19933;-61
2023/12/09 07:43:51;;;;;;;;;;;3.50;90.90;;;;;;5026890;28;19965;-60
2023/12/09 07:46:24;;;;;;;;;;;3.60;90.90;;;;;;5021183;28;19951;-61
2023/12/09 07:48:57;;;;;;;;;;;3.60;90.80;;;;;;5019290;28;19999;-61
2023/12/09 07:51:31;;;;;;;;;;;3.60;90.70;;;;;;5022403;28;19999;-61
2023/12/09 07:54:05;;;;;;;;;;;3.70;90.80;;;;;;5021596;28;19964;-61
2023/12/09 07:56:38;;;;;;;;;;;3.70;90.70;;;;;;5021695;28;19933;-61
2023/12/09 07:59:11;;;;;;;;;;;3.70;90.80;;;;;;5021362;28;19940;-72
2023/12/09 08:01:44;;;;;;;;;;;3.60;90.90;;;;;;5020690;28;19930;-72
2023/12/09 08:04:18;;;;;;;;;;;3.70;90.80;;;;;;5019397;28;19929;-72
2023/12/09 08:06:53;;;;;;;;;;;3.60;90.90;;;;;;5021694;28;19932;-73
2023/12/09 08:09:27;;;;;;;;;;;3.60;91.10;;;;;;5019961;28;19936;-72
2023/12/09 08:12:06;;;;;;;;;;;3.70;91.10;;;;;;5020477;28;19929;-72
2023/12/09 08:14:40;;;;;;;;;;;3.80;90.90;;;;;;5019609;28;19980;-73
2023/12/09 08:17:16;;;;;;;;;;;3.80;90.80;;;;;;5018374;28;20342;-72
2023/12/09 08:19:49;;;;;;;;;;;3.80;90.90;;;;;;5020762;28;19929;-72
2023/12/09 08:22:23;;;;;;;;;;;3.90;90.80;;;;;;5021124;28;19965;-72
2023/12/09 08:24:57;;;;;;;;;;;3.70;91.00;;;;;;5019802;28;19987;-72
2023/12/09 08:27:30;;;;;;;;;;;3.80;91.20;;;;;;5020638;28;19933;-72
2023/12/09 08:30:03;;;;;;;;;;;3.90;91.10;;;;;;5019071;28;19925;-72
2023/12/09 08:32:38;;;;;;;;;;;3.80;91.00;;;;;;5016515;28;19936;-73
2023/12/09 08:35:11;;;;;;;;;;;3.90;91.10;;;;;;5020069;28;19926;-73
2023/12/09 08:37:45;;;;;;;;;;;3.90;91.10;;;;;;5020860;28;19929;-72
2023/12/09 08:40:19;;;;;;;;;;;3.90;91.20;;;;;;5019079;28;20445;-73
2023/12/09 08:42:52;;;;;;;;;;;4.00;91.20;;;;;;5023264;28;19929;-72
2023/12/09 08:45:25;;;;;;;;;;;3.90;91.00;;;;;;5021870;28;19933;-72
2023/12/09 08:47:58;;;;;;;;;;;4.00;91.00;;;;;;5018551;28;19964;-72
2023/12/09 08:50:31;;;;;;;;;;;4.00;91.10;;;;;;5019742;28;19929;-72
2023/12/09 08:53:05;;;;;;;;;;;4.10;90.90;;;;;;5021057;28;19929;-73
2023/12/09 08:55:39;;;;;;;;;;;4.00;91.00;;;;;;5019004;28;20020;-72
2023/12/09 08:58:12;;;;;;;;;;;4.10;91.00;;;;;;5020230;28;19940;-72
2023/12/09 09:00:45;;;;;;;;;;;4.10;91.10;;;;;;5018404;28;20389;-72
2023/12/09 09:03:18;;;;;;;;;;;4.20;91.10;;;;;;5019680;28;20386;-73
2023/12/09 09:05:51;;;;;;;;;;;4.20;90.90;;;;;;5020143;28;19925;-71
2023/12/09 09:08:26;;;;;;;;;;;4.10;91.10;;;;;;5019738;28;19929;-60
2023/12/09 09:11:00;;;;;;;;;;;4.10;91.30;;;;;;5021796;28;19936;-60
2023/12/09 09:13:33;;;;;;;;;;;4.10;91.40;;;;;;5020993;28;20013;-59
2023/12/09 09:16:07;;;;;;;;;;;4.20;91.20;;;;;;5017527;28;19944;-59
2023/12/09 09:18:40;;;;;;;;;;;4.20;91.10;;;;;;5016281;28;20307;-60
2023/12/09 09:21:13;;;;;;;;;;;4.20;91.30;;;;;;5018167;28;20347;-59
2023/12/09 09:23:47;;;;;;;;;;;4.30;91.10;;;;;;5019564;28;20392;-60
2023/12/09 09:26:21;;;;;;;;;;;4.30;91.20;;;;;;5021191;28;19933;-60
2023/12/09 09:28:55;;;;;;;;;;;4.20;91.30;;;;;;5018761;28;19936;-66
2023/12/09 09:31:28;;;;;;;;;;;4.30;91.20;;;;;;5015864;28;19929;-60
2023/12/09 09:34:01;;;;;;;;;;;4.30;91.20;;;;;;5019653;28;20449;-61
2023/12/09 09:36:27;;;;;;;;;;;4.30;91.10;;;;;;5022009;28;20391;-60
2023/12/09 09:39:03;;;;;;;;;;;4.20;91.30;;;;;;5019380;28;19964;-60
2023/12/09 09:41:40;;;;;;;;;;;4.20;91.50;;;;;;5025432;28;20769;-61
2023/12/09 09:44:18;;;;;;;;;;;4.30;91.50;;;;;;5022302;28;19935;-59
2023/12/09 09:46:55;;;;;;;;;;;4.40;91.40;;;;;;5024380;28;20009;-60
2023/12/09 09:49:32;;;;;;;;;;;4.50;91.20;;;;;;5024122;28;19935;-59
2023/12/09 09:52:10;;;;;;;;;;;4.40;91.10;;;;;;5022835;28;20012;-60
2023/12/09 09:54:45;;;;;;;;;;;4.30;91.30;;;;;;5023619;28;20889;-60
2023/12/09 09:57:19;;;;;;;;;;;4.40;91.40;;;;;;5021712;28;20015;-61
2023/12/09 09:59:55;;;;;;;;;;;4.30;91.40;;;;;;5024583;28;19932;-60
2023/12/09 10:02:28;;;;;;;;;;;4.30;91.50;;;;;;5026976;28;20434;-60
2023/12/09 10:05:01;;;;;;;;;;;4.40;91.50;;;;;;5023919;28;19925;-60
2023/12/09 10:07:35;;;;;;;;;;;4.60;91.20;;;;;;5021866;28;20294;-60
2023/12/09 10:10:10;;;;;;;;;;;4.60;91.00;;;;;;5021554;28;20394;-60
2023/12/09 12:22:53;;;;;;;;;;;6.00;90.30;;;;;;5022778;28;19939;-75
2023/12/09 12:25:26;;;;;;;;;;;6.20;90.20;;;;;;5021837;28;20375;-74
2023/12/09 12:27:59;;;;;;;;;;;6.30;90.20;;;;;;5019932;28;19925;-72
2023/12/09 12:30:32;;;;;;;;;;;6.40;90.00;;;;;;5021476;28;19968;-75
2023/12/09 12:33:05;;;;;;;;;;;6.40;89.80;;;;;;5019215;28;19929;-73
2023/12/09 12:35:39;;;;;;;;;;;6.40;89.80;;;;;;5021306;28;19930;-72
2023/12/09 12:38:13;;;;;;;;;;;6.50;90.10;;;;;;5024019;28;19929;-60
2023/12/09 12:40:47;;;;;;;;;;;6.60;89.90;;;;;;5025495;28;19936;-60
2023/12/09 12:43:20;;;;;;;;;;;6.60;89.70;;;;;;5019626;28;19929;-59
2023/12/09 12:45:54;;;;;;;;;;;6.70;89.60;;;;;;5018871;28;20019;-60
2023/12/09 12:48:27;;;;;;;;;;;6.70;89.30;;;;;;5019414;28;20025;-59
2023/12/09 12:51:00;;;;;;;;;;;6.80;89.20;;;;;;5019293;28;19929;-60
2023/12/09 12:53:34;;;;;;;;;;;6.90;89.30;;;;;;5019972;28;19933;-60
2023/12/09 12:56:08;;;;;;;;;;;6.90;89.40;;;;;;5017998;28;19941;-60
2023/12/09 12:58:42;;;;;;;;;;;6.90;89.50;;;;;;5019648;28;19929;-60
2023/12/09 13:01:18;;;;;;;;;;;7.00;89.50;;;;;;5019207;28;20003;-59
2023/12/09 13:03:51;;;;;;;;;;;7.00;89.50;;;;;;5015157;28;19933;-59
2023/12/09 13:06:24;;;;;;;;;;;7.00;89.60;;;;;;5018355;28;20392;-59
2023/12/09 13:09:03;;;;;;;;;;;6.90;89.60;;;;;;5019051;28;19929;-59
2023/12/09 13:11:37;;;;;;;;;;;7.00;89.60;;;;;;5014741;28;19933;-60
2023/12/09 13:14:10;;;;;;;;;;;6.90;89.60;;;;;;5019813;28;19979;-59
2023/12/09 13:16:43;;;;;;;;;;;6.90;89.60;;;;;;5019170;28;20293;-60
2023/12/09 13:19:16;;;;;;;;;;;6.80;89.50;;;;;;5017203;28;20250;-59
2023/12/09 13:21:49;;;;;;;;;;;6.80;89.50;;;;;;5021590;28;20269;-60
2023/12/09 13:24:24;;;;;;;;;;;6.90;89.50;;;;;;5005534;28;20020;-61
2023/12/09 13:26:57;;;;;;;;;;;6.90;89.40;;;;;;5011503;28;19934;-60
2023/12/09 13:29:30;;;;;;;;;;;6.90;89.30;;;;;;5003679;28;19937;-59
2023/12/09 13:32:07;;;;;;;;;;;6.90;89.40;;;;;;4983787;28;19936;-59
2023/12/09 13:34:40;;;;;;;;;;;6.90;89.50;;;;;;5022069;28;19984;-59
2023/12/09 13:37:14;;;;;;;;;;;7.00;89.40;;;;;;5004742;28;19952;-61
2023/12/09 13:39:43;;;;;;;;;;;7.00;89.40;;;;;;5008403;28;19933;-60
2023/12/09 13:42:16;;;;;;;;;;;7.10;89.20;;;;;;5006653;28;19936;-59
2023/12/09 13:44:49;;;;;;;;;;;7.10;89.30;;;;;;5005855;28;19929;-60
2023/12/09 13:47:22;;;;;;;;;;;7.10;89.30;;;;;;5006198;28;19941;-61
2023/12/09 13:49:55;;;;;;;;;;;7.10;89.30;;;;;;5008981;28;20066;-62
2023/12/09 13:52:30;;;;;;;;;;;7.10;89.30;;;;;;5006098;28;20425;-63
2023/12/09 13:55:05;;;;;;;;;;;7.10;89.40;;;;;;5008761;28;19931;-63
2023/12/09 13:57:38;;;;;;;;;;;7.10;89.60;;;;;;5007210;28;19933;-62
2023/12/09 14:00:07;;;;;;;;;;;7.00;89.70;;;;;;5012158;28;19932;-61
2023/12/09 14:02:40;;;;;;;;;;;7.00;89.70;;;;;;5006259;28;20036;-62
2023/12/09 14:05:15;;;;;;;;;;;7.00;89.70;;;;;;5007991;28;20016;-62
2023/12/09 14:07:48;;;;;;;;;;;7.10;89.60;;;;;;4986487;28;19930;-62
2023/12/09 14:10:35;;;;;;;;;;;7.00;89.60;;;;;;4986328;28;19930;-66
2023/12/09 14:13:08;;;;;;;;;;;7.00;89.50;;;;;;4987610;28;19932;-61
2023/12/09 14:15:47;;;;;;;;;;;7.00;89.50;;;;;;4986304;28;19948;-62
2023/12/09 14:18:20;;;;;;;;;;;6.90;89.40;;;;;;4986262;28;20020;-63
2023/12/09 14:20:53;;;;;;;;;;;6.90;89.40;;;;;;5003175;28;19926;-62
2023/12/09 14:23:27;;;;;;;;;;;6.90;89.50;;;;;;5011899;28;19926;-63
2023/12/09 14:26:03;;;;;;;;;;;6.90;89.50;;;;;;5007635;28;19940;-62
2023/12/09 14:28:36;;;;;;;;;;;6.90;89.60;;;;;;4991651;28;20384;-62
2023/12/09 14:31:10;;;;;;;;;;;6.90;89.60;;;;;;4993321;28;20456;-63
2023/12/09 14:33:43;;;;;;;;;;;6.90;89.70;;;;;;5016260;28;20363;-61
2023/12/09 14:36:16;;;;;;;;;;;6.90;89.70;;;;;;4991397;28;19929;-63
2023/12/09 14:38:43;;;;;;;;;;;6.90;89.70;;;;;;4991075;28;19929;-62
2023/12/09 14:41:17;;;;;;;;;;;6.90;89.70;;;;;;4990751;28;19930;-63
2023/12/09 14:43:58;;;;;;;;;;;6.90;89.50;;;;;;5002907;28;19929;-61
2023/12/09 14:46:31;;;;;;;;;;;6.90;89.50;;;;;;5010361;28;19934;-62
2023/12/09 14:49:05;;;;;;;;;;;6.90;89.50;;;;;;5011955;28;19926;-63
2023/12/09 14:51:46;;;;;;;;;;;6.80;89.60;;;;;;5004909;28;20289;-62
2023/12/09 14:54:26;;;;;;;;;;;6.80;89.60;;;;;;5012190;28;20343;-61
2023/12/09 14:57:04;;;;;;;;;;;6.80;89.70;;;;;;5004132;28;19941;-63
2023/12/09 14:59:38;;;;;;;;;;;6.80;89.70;;;;;;4994940;28;19930;-64
2023/12/09 15:02:11;;;;;;;;;;;6.70;89.60;;;;;;5010999;28;19940;-64
2023/12/09 15:04:44;;;;;;;;;;;6.70;89.70;;;;;;5004511;28;19929;-63
2023/12/09 15:07:17;;;;;;;;;;;6.70;89.70;;;;;;5012086;28;19930;-64
2023/12/09 15:09:50;;;;;;;;;;;6.70;89.70;;;;;;5009872;28;20377;-64
2023/12/09 15:12:25;;;;;;;;;;;6.80;89.80;;;;;;5010619;28;19952;-63
2023/12/09 15:15:00;;;;;;;;;;;6.70;89.70;;;;;;5010840;28;19957;-64
2023/12/09 15:17:33;;;;;;;;;;;6.70;89.70;;;;;;5009333;28;19932;-65
2023/12/09 15:20:08;;;;;;;;;;;6.70;89.70;;;;;;5009556;28;19930;-64
2023/12/09 15:22:42;;;;;;;;;;;6.70;89.70;;;;;;5010906;28;20007;-63
2023/12/09 15:25:16;;;;;;;;;;;6.70;89.70;;;;;;5012190;28;19948;-63
2023/12/09 15:27:51;;;;;;;;;;;6.80;89.70;;;;;;5011537;28;20020;-64
2023/12/09 15:30:25;;;;;;;;;;;6.70;89.80;;;;;;5009362;28;19930;-65
2023/12/09 15:32:58;;;;;;;;;;;6.70;89.80;;;;;;5011060;28;19932;-65
2023/12/09 15:35:31;;;;;;;;;;;6.70;89.90;;;;;;5008530;28;20392;-63
2023/12/09 15:38:05;;;;;;;;;;;6.70;90.00;;;;;;5009577;28;19925;-63
2023/12/09 15:40:38;;;;;;;;;;;6.70;90.00;;;;;;5002790;28;19929;-64
2023/12/09 15:43:12;;;;;;;;;;;6.70;90.00;;;;;;5011906;28;20510;-64
2023/12/09 15:45:46;;;;;;;;;;;6.70;90.00;;;;;;4994670;28;20020;-63
2023/12/09 15:48:19;;;;;;;;;;;6.70;90.10;;;;;;5009337;28;20486;-63
2023/12/09 15:50:52;;;;;;;;;;;6.70;90.10;;;;;;5005080;28;20070;-64
2023/12/09 15:53:25;;;;;;;;;;;6.60;90.10;;;;;;5002996;28;20458;-64
2023/12/09 15:55:58;;;;;;;;;;;6.70;90.20;;;;;;5008512;28;19940;-64
2023/12/09 15:58:32;;;;;;;;;;;6.70;90.20;;;;;;5010770;28;20020;-64
2023/12/09 16:01:06;;;;;;;;;;;6.70;90.30;;;;;;5009882;28;20016;-64
2023/12/09 16:03:40;;;;;;;;;;;6.60;90.40;;;;;;5008343;28;20730;-64
2023/12/09 16:06:13;;;;;;;;;;;6.70;90.50;;;;;;5003497;28;19925;-63
2023/12/09 16:08:46;;;;;;;;;;;6.70;90.50;;;;;;5003095;28;19933;-71
2023/12/09 16:11:19;;;;;;;;;;;6.60;90.60;;;;;;4988510;28;19984;-70
2023/12/09 16:13:53;;;;;;;;;;;6.70;90.60;;;;;;4989613;28;19969;-70
2023/12/09 16:16:27;;;;;;;;;;;6.60;90.70;;;;;;4989396;28;20447;-71
2023/12/09 16:19:00;;;;;;;;;;;6.60;90.70;;;;;;4987351;28;19933;-71
2023/12/09 16:21:34;;;;;;;;;;;6.60;90.60;;;;;;4989261;28;19964;-70
2023/12/09 16:24:07;;;;;;;;;;;6.60;90.60;;;;;;4991034;28;19925;-73
2023/12/09 16:26:40;;;;;;;;;;;6.60;90.50;;;;;;4989095;28;20029;-71
2023/12/09 16:29:14;;;;;;;;;;;6.60;90.50;;;;;;4991246;28;19941;-71
2023/12/09 16:31:48;;;;;;;;;;;6.60;90.50;;;;;;4989568;28;19949;-71
2023/12/09 16:34:21;;;;;;;;;;;6.60;90.50;;;;;;4989944;28;19933;-72
2023/12/09 16:36:57;;;;;;;;;;;6.60;90.50;;;;;;4989208;28;19969;-72
2023/12/09 16:39:30;;;;;;;;;;;6.60;90.40;;;;;;5015815;28;19925;-71
2023/12/09 16:42:03;;;;;;;;;;;6.60;90.40;;;;;;5008175;28;20000;-72
2023/12/09 16:44:37;;;;;;;;;;;6.60;90.50;;;;;;5007931;28;19929;-71
2023/12/09 16:47:11;;;;;;;;;;;6.50;90.40;;;;;;5009266;28;19925;-71
2023/12/09 16:49:44;;;;;;;;;;;6.50;90.50;;;;;;5009015;28;19992;-70
2023/12/09 16:52:17;;;;;;;;;;;6.50;90.40;;;;;;5009671;28;19931;-72
2023/12/09 16:54:50;;;;;;;;;;;6.50;90.50;;;;;;5007954;28;19932;-71
2023/12/09 16:57:17;;;;;;;;;;;6.50;90.50;;;;;;5008011;28;20285;-70
2023/12/09 16:59:55;;;;;;;;;;;6.50;90.40;;;;;;5008762;28;19934;-71
2023/12/09 17:02:29;;;;;;;;;;;6.50;90.50;;;;;;5004376;28;20276;-71
2023/12/09 17:05:02;;;;;;;;;;;6.50;90.50;;;;;;5005228;28;19975;-72
2023/12/09 17:07:36;;;;;;;;;;;6.50;90.40;;;;;;4989736;28;19930;-71
2023/12/09 17:10:09;;;;;;;;;;;6.50;90.40;;;;;;4999508;28;20396;-72
2023/12/09 17:12:42;;;;;;;;;;;6.50;90.40;;;;;;5000256;28;20408;-71
2023/12/09 17:15:16;;;;;;;;;;;6.50;90.40;;;;;;5009612;28;19936;-71
2023/12/09 17:17:53;;;;;;;;;;;6.50;90.40;;;;;;5015504;28;19937;-71
2023/12/09 17:20:26;;;;;;;;;;;6.50;90.40;;;;;;5004374;28;19934;-61
2023/12/09 17:23:05;;;;;;;;;;;6.50;90.40;;;;;;5008537;28;19964;-59
2023/12/09 17:25:41;;;;;;;;;;;6.50;90.50;;;;;;5007569;28;19934;-61
2023/12/09 17:28:18;;;;;;;;;;;6.50;90.50;;;;;;5009194;28;19940;-59